Terminal Aerodrome Forecast
Issued by NWS

Home | Current Version | Previous Version | Graphics & Text | Print | Product List | Glossary On
Versions: 1 2 3 4 5 6 7 8 9 10 11 12 13 14 15 16 17 18 19 20 21 22 23 24 25 26 27 28 29 30 31 32 33 34
000
FTUS43 KLOT 301355 AAA
TAFMDW
TAF AMD
KMDW 301355Z 3014/3112 08003KT 4SM BR BKN008 OVC015
     FM301600 05004KT 5SM HZ SCT008 BKN025
     FM302000 09006KT P6SM SCT025
     FM310500 00000KT 4SM BR SKC=

USA.gov is the U.S. government's official web portal to all federal, state and local government web resources and services.